sensor_id;sensor_type;location;lat;lon;timestamp;P1;durP1;ratioP1;P2;durP2;ratioP2
29934;SDS011;19905;53.370;-6.314;2023-04-21T00:00:01;14.07;;;2.22;;
29934;SDS011;19905;53.370;-6.314;2023-04-21T00:02:33;12.00;;;2.50;;
29934;SDS011;19905;53.370;-6.314;2023-04-21T00:05:05;15.32;;;2.70;;
29934;SDS011;19905;53.370;-6.314;2023-04-21T00:07:37;13.93;;;2.10;;
29934;SDS011;19905;53.370;-6.314;2023-04-21T00:10:07;11.40;;;2.40;;
29934;SDS011;19905;53.370;-6.314;2023-04-21T00:12:37;14.98;;;2.58;;
29934;SDS011;19905;53.370;-6.314;2023-04-21T00:15:07;10.23;;;2.17;;
29934;SDS011;19905;53.370;-6.314;2023-04-21T00:17:36;11.13;;;2.30;;
29934;SDS011;19905;53.370;-6.314;2023-04-21T00:20:06;10.52;;;2.08;;
29934;SDS011;19905;53.370;-6.314;2023-04-21T00:22:37;11.90;;;2.13;;
29934;SDS011;19905;53.370;-6.314;2023-04-21T00:25:07;9.77;;;2.20;;
29934;SDS011;19905;53.370;-6.314;2023-04-21T00:27:36;12.32;;;1.90;;
29934;SDS011;19905;53.370;-6.314;2023-04-21T00:30:06;16.83;;;2.30;;
29934;SDS011;19905;53.370;-6.314;2023-04-21T00:32:36;9.50;;;1.95;;
29934;SDS011;19905;53.370;-6.314;2023-04-21T00:35:05;10.15;;;2.38;;
29934;SDS011;19905;53.370;-6.314;2023-04-21T00:37:34;12.50;;;2.40;;
29934;SDS011;19905;53.370;-6.314;2023-04-21T00:40:02;12.82;;;2.40;;
29934;SDS011;19905;53.370;-6.314;2023-04-21T00:42:33;15.13;;;2.58;;
29934;SDS011;19905;53.370;-6.314;2023-04-21T00:45:01;12.82;;;2.45;;
29934;SDS011;19905;53.370;-6.314;2023-04-21T00:47:30;12.00;;;2.10;;
29934;SDS011;19905;53.370;-6.314;2023-04-21T00:49:59;12.32;;;2.67;;
29934;SDS011;19905;53.370;-6.314;2023-04-21T00:52:27;12.57;;;2.20;;
29934;SDS011;19905;53.370;-6.314;2023-04-21T00:54:57;13.95;;;2.72;;
29934;SDS011;19905;53.370;-6.314;2023-04-21T00:57:26;10.30;;;2.30;;
29934;SDS011;19905;53.370;-6.314;2023-04-21T00:59:57;12.45;;;2.47;;
29934;SDS011;19905;53.370;-6.314;2023-04-21T01:02:25;9.52;;;2.40;;
29934;SDS011;19905;53.370;-6.314;2023-04-21T01:04:55;16.73;;;2.80;;
29934;SDS011;19905;53.370;-6.314;2023-04-21T01:07:24;14.27;;;3.13;;
29934;SDS011;19905;53.370;-6.314;2023-04-21T01:09:52;13.98;;;3.05;;
29934;SDS011;19905;53.370;-6.314;2023-04-21T01:12:20;12.20;;;3.00;;
29934;SDS011;19905;53.370;-6.314;2023-04-21T01:14:49;12.68;;;2.50;;
29934;SDS011;19905;53.370;-6.314;2023-04-21T01:17:20;14.23;;;3.08;;
29934;SDS011;19905;53.370;-6.314;2023-04-21T01:19:48;13.27;;;3.05;;
29934;SDS011;19905;53.370;-6.314;2023-04-21T01:22:20;15.38;;;3.38;;
29934;SDS011;19905;53.370;-6.314;2023-04-21T01:24:49;13.48;;;3.50;;
29934;SDS011;19905;53.370;-6.314;2023-04-21T01:27:18;17.73;;;3.22;;
29934;SDS011;19905;53.370;-6.314;2023-04-21T01:29:49;17.02;;;3.45;;
29934;SDS011;19905;53.370;-6.314;2023-04-21T01:32:20;19.63;;;3.67;;
29934;SDS011;19905;53.370;-6.314;2023-04-21T01:34:50;18.88;;;3.60;;
29934;SDS011;19905;53.370;-6.314;2023-04-21T01:37:20;15.68;;;3.90;;
29934;SDS011;19905;53.370;-6.314;2023-04-21T01:39:52;24.17;;;3.97;;
29934;SDS011;19905;53.370;-6.314;2023-04-21T01:42:23;16.45;;;3.80;;
29934;SDS011;19905;53.370;-6.314;2023-04-21T01:44:54;14.27;;;3.88;;
29934;SDS011;19905;53.370;-6.314;2023-04-21T01:47:24;16.00;;;4.00;;
29934;SDS011;19905;53.370;-6.314;2023-04-21T01:49:53;18.63;;;4.05;;
29934;SDS011;19905;53.370;-6.314;2023-04-21T01:52:23;25.23;;;4.25;;
29934;SDS011;19905;53.370;-6.314;2023-04-21T01:54:53;19.88;;;4.30;;
29934;SDS011;19905;53.370;-6.314;2023-04-21T01:57:22;20.42;;;4.03;;
29934;SDS011;19905;53.370;-6.314;2023-04-21T01:59:51;15.23;;;4.30;;
29934;SDS011;19905;53.370;-6.314;2023-04-21T02:02:20;15.80;;;4.20;;
29934;SDS011;19905;53.370;-6.314;2023-04-21T02:04:48;20.48;;;4.18;;
29934;SDS011;19905;53.370;-6.314;2023-04-21T02:07:17;20.13;;;4.35;;
29934;SDS011;19905;53.370;-6.314;2023-04-21T02:09:47;20.67;;;4.68;;
29934;SDS011;19905;53.370;-6.314;2023-04-21T02:12:15;21.80;;;4.82;;
29934;SDS011;19905;53.370;-6.314;2023-04-21T02:14:44;16.45;;;4.40;;
29934;SDS011;19905;53.370;-6.314;2023-04-21T02:17:13;19.88;;;4.80;;
29934;SDS011;19905;53.370;-6.314;2023-04-21T02:19:43;23.63;;;4.70;;
29934;SDS011;19905;53.370;-6.314;2023-04-21T02:22:13;22.08;;;4.60;;
29934;SDS011;19905;53.370;-6.314;2023-04-21T02:24:42;22.35;;;4.78;;
29934;SDS011;19905;53.370;-6.314;2023-04-21T02:27:12;21.60;;;4.93;;
29934;SDS011;19905;53.370;-6.314;2023-04-21T02:29:41;25.27;;;4.88;;
29934;SDS011;19905;53.370;-6.314;2023-04-21T02:32:10;20.05;;;5.05;;
29934;SDS011;19905;53.370;-6.314;2023-04-21T02:34:51;24.95;;;5.57;;
29934;SDS011;19905;53.370;-6.314;2023-04-21T02:37:19;21.83;;;5.28;;
29934;SDS011;19905;53.370;-6.314;2023-04-21T02:39:48;19.40;;;4.90;;
29934;SDS011;19905;53.370;-6.314;2023-04-21T02:42:18;22.45;;;5.20;;
29934;SDS011;19905;53.370;-6.314;2023-04-21T02:44:47;18.65;;;4.80;;
29934;SDS011;19905;53.370;-6.314;2023-04-21T02:47:16;19.63;;;5.03;;
29934;SDS011;19905;53.370;-6.314;2023-04-21T02:49:44;21.20;;;5.32;;
29934;SDS011;19905;53.370;-6.314;2023-04-21T02:52:13;22.63;;;4.72;;
29934;SDS011;19905;53.370;-6.314;2023-04-21T02:54:41;14.75;;;4.50;;
29934;SDS011;19905;53.370;-6.314;2023-04-21T02:57:10;17.20;;;4.78;;
29934;SDS011;19905;53.370;-6.314;2023-04-21T02:59:40;21.77;;;5.20;;
29934;SDS011;19905;53.370;-6.314;2023-04-21T03:02:09;23.63;;;5.32;;
29934;SDS011;19905;53.370;-6.314;2023-04-21T03:04:37;19.40;;;5.07;;
29934;SDS011;19905;53.370;-6.314;2023-04-21T03:07:10;24.30;;;4.97;;
29934;SDS011;19905;53.370;-6.314;2023-04-21T03:09:39;30.30;;;5.90;;
29934;SDS011;19905;53.370;-6.314;2023-04-21T03:12:08;19.80;;;5.75;;
29934;SDS011;19905;53.370;-6.314;2023-04-21T03:14:37;22.45;;;5.97;;
29934;SDS011;19905;53.370;-6.314;2023-04-21T03:17:07;24.23;;;5.82;;
29934;SDS011;19905;53.370;-6.314;2023-04-21T03:19:35;15.73;;;5.03;;
29934;SDS011;19905;53.370;-6.314;2023-04-21T03:22:04;20.73;;;5.78;;
29934;SDS011;19905;53.370;-6.314;2023-04-21T03:24:33;17.63;;;4.88;;
29934;SDS011;19905;53.370;-6.314;2023-04-21T03:27:04;16.10;;;4.82;;
29934;SDS011;19905;53.370;-6.314;2023-04-21T03:29:36;16.25;;;4.80;;
29934;SDS011;19905;53.370;-6.314;2023-04-21T03:32:04;16.95;;;4.93;;
29934;SDS011;19905;53.370;-6.314;2023-04-21T03:34:34;21.77;;;5.28;;
29934;SDS011;19905;53.370;-6.314;2023-04-21T03:37:03;15.10;;;5.18;;
29934;SDS011;19905;53.370;-6.314;2023-04-21T03:39:32;16.80;;;5.18;;
29934;SDS011;19905;53.370;-6.314;2023-04-21T03:42:01;18.05;;;5.38;;
29934;SDS011;19905;53.370;-6.314;2023-04-21T03:44:30;15.00;;;5.15;;
29934;SDS011;19905;53.370;-6.314;2023-04-21T03:46:59;21.17;;;5.38;;
29934;SDS011;19905;53.370;-6.314;2023-04-21T03:49:29;18.92;;;4.95;;
29934;SDS011;19905;53.370;-6.314;2023-04-21T03:51:59;20.45;;;5.35;;
29934;SDS011;19905;53.370;-6.314;2023-04-21T03:54:28;20.23;;;5.20;;
29934;SDS011;19905;53.370;-6.314;2023-04-21T03:56:56;17.10;;;5.32;;
29934;SDS011;19905;53.370;-6.314;2023-04-21T03:59:25;20.42;;;5.15;;
29934;SDS011;19905;53.370;-6.314;2023-04-21T04:01:53;18.77;;;5.75;;
29934;SDS011;19905;53.370;-6.314;2023-04-21T04:04:22;24.98;;;4.78;;
29934;SDS011;19905;53.370;-6.314;2023-04-21T04:06:51;18.13;;;4.97;;
29934;SDS011;19905;53.370;-6.314;2023-04-21T04:09:21;21.23;;;4.45;;
29934;SDS011;19905;53.370;-6.314;2023-04-21T04:11:49;20.60;;;4.43;;
29934;SDS011;19905;53.370;-6.314;2023-04-21T04:14:18;17.20;;;4.32;;
29934;SDS011;19905;53.370;-6.314;2023-04-21T04:16:46;19.58;;;4.32;;
29934;SDS011;19905;53.370;-6.314;2023-04-21T04:19:15;16.80;;;4.20;;
29934;SDS011;19905;53.370;-6.314;2023-04-21T04:21:44;14.82;;;4.68;;
29934;SDS011;19905;53.370;-6.314;2023-04-21T04:24:14;22.23;;;4.63;;
29934;SDS011;19905;53.370;-6.314;2023-04-21T04:26:44;16.45;;;5.15;;
29934;SDS011;19905;53.370;-6.314;2023-04-21T04:29:13;22.95;;;4.95;;
29934;SDS011;19905;53.370;-6.314;2023-04-21T04:31:43;20.20;;;5.38;;
29934;SDS011;19905;53.370;-6.314;2023-04-21T04:34:12;18.08;;;5.20;;
29934;SDS011;19905;53.370;-6.314;2023-04-21T04:36:41;13.20;;;4.60;;
29934;SDS011;19905;53.370;-6.314;2023-04-21T04:39:10;19.13;;;5.10;;
29934;SDS011;19905;53.370;-6.314;2023-04-21T04:41:39;20.00;;;5.30;;
29934;SDS011;19905;53.370;-6.314;2023-04-21T04:44:10;17.45;;;4.72;;
29934;SDS011;19905;53.370;-6.314;2023-04-21T04:46:38;18.88;;;5.25;;
29934;SDS011;19905;53.370;-6.314;2023-04-21T04:49:07;21.50;;;5.85;;
29934;SDS011;19905;53.370;-6.314;2023-04-21T04:51:35;20.75;;;5.13;;
29934;SDS011;19905;53.370;-6.314;2023-04-21T04:54:04;13.90;;;5.18;;
29934;SDS011;19905;53.370;-6.314;2023-04-21T04:56:33;21.15;;;5.40;;
29934;SDS011;19905;53.370;-6.314;2023-04-21T04:59:02;20.40;;;4.85;;
29934;SDS011;19905;53.370;-6.314;2023-04-21T05:01:32;22.52;;;5.45;;
29934;SDS011;19905;53.370;-6.314;2023-04-21T05:04:01;22.08;;;4.70;;
29934;SDS011;19905;53.370;-6.314;2023-04-21T05:06:29;20.58;;;4.57;;
29934;SDS011;19905;53.370;-6.314;2023-04-21T05:08:58;22.23;;;4.93;;
29934;SDS011;19905;53.370;-6.314;2023-04-21T05:11:26;26.05;;;4.82;;
29934;SDS011;19905;53.370;-6.314;2023-04-21T05:13:56;18.45;;;4.80;;
29934;SDS011;19905;53.370;-6.314;2023-04-21T05:16:24;16.27;;;4.80;;
29934;SDS011;19905;53.370;-6.314;2023-04-21T05:18:54;22.35;;;5.20;;
29934;SDS011;19905;53.370;-6.314;2023-04-21T05:21:23;19.80;;;5.60;;
29934;SDS011;19905;53.370;-6.314;2023-04-21T05:23:54;21.42;;;5.50;;
29934;SDS011;19905;53.370;-6.314;2023-04-21T05:26:23;25.23;;;5.78;;
29934;SDS011;19905;53.370;-6.314;2023-04-21T05:28:53;20.55;;;4.88;;
29934;SDS011;19905;53.370;-6.314;2023-04-21T05:31:22;20.85;;;5.40;;
29934;SDS011;19905;53.370;-6.314;2023-04-21T05:33:51;19.30;;;5.57;;
29934;SDS011;19905;53.370;-6.314;2023-04-21T05:36:21;19.70;;;5.90;;
29934;SDS011;19905;53.370;-6.314;2023-04-21T05:38:50;19.00;;;5.70;;
29934;SDS011;19905;53.370;-6.314;2023-04-21T05:41:20;17.33;;;5.03;;
29934;SDS011;19905;53.370;-6.314;2023-04-21T05:43:49;20.73;;;5.85;;
29934;SDS011;19905;53.370;-6.314;2023-04-21T05:46:18;23.45;;;5.70;;
29934;SDS011;19905;53.370;-6.314;2023-04-21T05:48:47;20.55;;;6.05;;
29934;SDS011;19905;53.370;-6.314;2023-04-21T05:51:18;26.92;;;5.53;;
29934;SDS011;19905;53.370;-6.314;2023-04-21T05:53:48;28.13;;;5.60;;
29934;SDS011;19905;53.370;-6.314;2023-04-21T05:56:17;20.20;;;5.55;;
29934;SDS011;19905;53.370;-6.314;2023-04-21T05:58:45;23.67;;;5.97;;
29934;SDS011;19905;53.370;-6.314;2023-04-21T06:01:14;25.33;;;6.30;;
29934;SDS011;19905;53.370;-6.314;2023-04-21T06:03:43;23.52;;;6.07;;
29934;SDS011;19905;53.370;-6.314;2023-04-21T06:06:11;20.33;;;5.72;;
29934;SDS011;19905;53.370;-6.314;2023-04-21T06:08:40;26.50;;;5.75;;
29934;SDS011;19905;53.370;-6.314;2023-04-21T06:11:10;27.42;;;6.13;;
29934;SDS011;19905;53.370;-6.314;2023-04-21T06:13:39;23.33;;;6.03;;
29934;SDS011;19905;53.370;-6.314;2023-04-21T06:16:09;25.55;;;6.00;;
29934;SDS011;19905;53.370;-6.314;2023-04-21T06:18:37;26.63;;;5.50;;
29934;SDS011;19905;53.370;-6.314;2023-04-21T06:21:06;23.27;;;6.07;;
29934;SDS011;19905;53.370;-6.314;2023-04-21T06:23:34;25.42;;;5.72;;
29934;SDS011;19905;53.370;-6.314;2023-04-21T06:26:04;30.95;;;6.43;;
29934;SDS011;19905;53.370;-6.314;2023-04-21T06:28:35;18.08;;;5.68;;
29934;SDS011;19905;53.370;-6.314;2023-04-21T06:31:04;22.13;;;5.80;;
29934;SDS011;19905;53.370;-6.314;2023-04-21T06:33:35;21.10;;;5.90;;
29934;SDS011;19905;53.370;-6.314;2023-04-21T06:36:04;23.63;;;6.07;;
29934;SDS011;19905;53.370;-6.314;2023-04-21T06:38:33;24.13;;;5.95;;
29934;SDS011;19905;53.370;-6.314;2023-04-21T06:41:01;17.80;;;6.05;;
29934;SDS011;19905;53.370;-6.314;2023-04-21T06:43:31;20.35;;;5.57;;
29934;SDS011;19905;53.370;-6.314;2023-04-21T06:46:01;19.05;;;5.95;;
29934;SDS011;19905;53.370;-6.314;2023-04-21T06:48:30;19.30;;;5.95;;
29934;SDS011;19905;53.370;-6.314;2023-04-21T06:50:58;20.27;;;5.82;;
29934;SDS011;19905;53.370;-6.314;2023-04-21T06:53:28;23.85;;;6.22;;
29934;SDS011;19905;53.370;-6.314;2023-04-21T06:55:57;30.42;;;6.75;;
29934;SDS011;19905;53.370;-6.314;2023-04-21T06:58:25;21.05;;;5.53;;
29934;SDS011;19905;53.370;-6.314;2023-04-21T07:00:54;23.02;;;5.32;;
29934;SDS011;19905;53.370;-6.314;2023-04-21T07:03:24;25.55;;;6.28;;
29934;SDS011;19905;53.370;-6.314;2023-04-21T07:05:52;25.00;;;5.45;;
29934;SDS011;19905;53.370;-6.314;2023-04-21T07:08:21;23.58;;;6.45;;
29934;SDS011;19905;53.370;-6.314;2023-04-21T07:10:50;22.55;;;6.25;;
29934;SDS011;19905;53.370;-6.314;2023-04-21T07:13:19;22.20;;;6.47;;
29934;SDS011;19905;53.370;-6.314;2023-04-21T07:15:47;23.70;;;7.88;;
29934;SDS011;19905;53.370;-6.314;2023-04-21T07:18:16;20.02;;;5.88;;
29934;SDS011;19905;53.370;-6.314;2023-04-21T07:20:46;27.40;;;6.53;;
29934;SDS011;19905;53.370;-6.314;2023-04-21T07:23:15;26.58;;;6.68;;
29934;SDS011;19905;53.370;-6.314;2023-04-21T07:25:44;26.80;;;5.97;;
29934;SDS011;19905;53.370;-6.314;2023-04-21T07:28:12;18.23;;;6.22;;
29934;SDS011;19905;53.370;-6.314;2023-04-21T07:30:41;23.88;;;6.40;;
29934;SDS011;19905;53.370;-6.314;2023-04-21T07:33:10;22.92;;;6.53;;
29934;SDS011;19905;53.370;-6.314;2023-04-21T07:35:38;29.80;;;6.75;;
29934;SDS011;19905;53.370;-6.314;2023-04-21T07:38:09;26.08;;;6.95;;
29934;SDS011;19905;53.370;-6.314;2023-04-21T07:40:37;27.08;;;6.75;;
29934;SDS011;19905;53.370;-6.314;2023-04-21T07:43:06;22.05;;;6.07;;
29934;SDS011;19905;53.370;-6.314;2023-04-21T07:45:34;21.60;;;5.93;;
29934;SDS011;19905;53.370;-6.314;2023-04-21T07:48:03;24.75;;;6.65;;
29934;SDS011;19905;53.370;-6.314;2023-04-21T07:50:32;28.58;;;6.18;;
29934;SDS011;19905;53.370;-6.314;2023-04-21T07:53:02;25.27;;;5.78;;
29934;SDS011;19905;53.370;-6.314;2023-04-21T07:55:32;25.15;;;6.03;;
29934;SDS011;19905;53.370;-6.314;2023-04-21T07:58:02;29.00;;;6.60;;
29934;SDS011;19905;53.370;-6.314;2023-04-21T08:00:32;31.05;;;7.10;;
29934;SDS011;19905;53.370;-6.314;2023-04-21T08:03:01;28.55;;;6.80;;
29934;SDS011;19905;53.370;-6.314;2023-04-21T08:05:29;26.33;;;6.60;;
29934;SDS011;19905;53.370;-6.314;2023-04-21T08:08:04;27.83;;;6.45;;
29934;SDS011;19905;53.370;-6.314;2023-04-21T08:10:34;24.17;;;6.63;;
29934;SDS011;19905;53.370;-6.314;2023-04-21T08:13:03;29.30;;;6.75;;
29934;SDS011;19905;53.370;-6.314;2023-04-21T08:15:32;29.17;;;7.75;;
29934;SDS011;19905;53.370;-6.314;2023-04-21T08:18:01;22.55;;;6.78;;
29934;SDS011;19905;53.370;-6.314;2023-04-21T08:20:33;26.10;;;6.85;;
29934;SDS011;19905;53.370;-6.314;2023-04-21T08:23:02;28.67;;;5.97;;
29934;SDS011;19905;53.370;-6.314;2023-04-21T08:25:30;27.00;;;6.57;;
29934;SDS011;19905;53.370;-6.314;2023-04-21T08:28:01;33.35;;;6.40;;
29934;SDS011;19905;53.370;-6.314;2023-04-21T08:30:30;31.55;;;6.45;;
29934;SDS011;19905;53.370;-6.314;2023-04-21T08:32:58;31.80;;;6.93;;
29934;SDS011;19905;53.370;-6.314;2023-04-21T08:35:27;29.90;;;6.72;;
29934;SDS011;19905;53.370;-6.314;2023-04-21T08:37:55;25.40;;;6.70;;
29934;SDS011;19905;53.370;-6.314;2023-04-21T08:40:25;24.90;;;6.50;;
29934;SDS011;19905;53.370;-6.314;2023-04-21T08:43:00;28.27;;;6.93;;
29934;SDS011;19905;53.370;-6.314;2023-04-21T08:45:29;24.95;;;6.90;;
29934;SDS011;19905;53.370;-6.314;2023-04-21T08:47:58;27.98;;;6.90;;
29934;SDS011;19905;53.370;-6.314;2023-04-21T08:50:28;24.33;;;6.53;;
29934;SDS011;19905;53.370;-6.314;2023-04-21T08:52:58;25.17;;;7.03;;
29934;SDS011;19905;53.370;-6.314;2023-04-21T08:55:27;29.02;;;7.28;;
29934;SDS011;19905;53.370;-6.314;2023-04-21T08:57:57;30.08;;;6.82;;
29934;SDS011;19905;53.370;-6.314;2023-04-21T09:00:27;26.52;;;7.30;;
29934;SDS011;19905;53.370;-6.314;2023-04-21T09:02:56;31.48;;;7.05;;
29934;SDS011;19905;53.370;-6.314;2023-04-21T09:05:28;32.70;;;7.20;;
29934;SDS011;19905;53.370;-6.314;2023-04-21T09:08:09;29.77;;;6.45;;
29934;SDS011;19905;53.370;-6.314;2023-04-21T09:10:41;23.33;;;6.03;;
29934;SDS011;19905;53.370;-6.314;2023-04-21T09:13:12;18.92;;;6.38;;
29934;SDS011;19905;53.370;-6.314;2023-04-21T09:15:43;31.40;;;7.03;;
29934;SDS011;19905;53.370;-6.314;2023-04-21T09:18:13;25.92;;;7.07;;
29934;SDS011;19905;53.370;-6.314;2023-04-21T09:20:43;22.15;;;6.60;;
29934;SDS011;19905;53.370;-6.314;2023-04-21T09:23:13;25.48;;;6.78;;
29934;SDS011;19905;53.370;-6.314;2023-04-21T09:25:43;22.48;;;5.65;;
29934;SDS011;19905;53.370;-6.314;2023-04-21T09:28:13;21.17;;;6.03;;
29934;SDS011;19905;53.370;-6.314;2023-04-21T09:30:43;25.02;;;6.43;;
29934;SDS011;19905;53.370;-6.314;2023-04-21T09:33:15;22.45;;;6.63;;
29934;SDS011;19905;53.370;-6.314;2023-04-21T09:35:54;25.45;;;6.93;;
29934;SDS011;19905;53.370;-6.314;2023-04-21T09:38:23;23.70;;;6.07;;
29934;SDS011;19905;53.370;-6.314;2023-04-21T09:41:00;23.30;;;6.57;;
29934;SDS011;19905;53.370;-6.314;2023-04-21T09:43:29;25.13;;;6.00;;
29934;SDS011;19905;53.370;-6.314;2023-04-21T09:45:59;30.35;;;6.85;;
29934;SDS011;19905;53.370;-6.314;2023-04-21T09:48:32;32.28;;;7.05;;
29934;SDS011;19905;53.370;-6.314;2023-04-21T09:51:03;22.48;;;6.70;;
29934;SDS011;19905;53.370;-6.314;2023-04-21T09:53:35;18.30;;;6.22;;
29934;SDS011;19905;53.370;-6.314;2023-04-21T09:56:06;23.27;;;6.85;;
29934;SDS011;19905;53.370;-6.314;2023-04-21T09:58:46;31.65;;;6.78;;
29934;SDS011;19905;53.370;-6.314;2023-04-21T10:01:22;19.67;;;6.20;;
29934;SDS011;19905;53.370;-6.314;2023-04-21T10:03:54;28.20;;;6.65;;
29934;SDS011;19905;53.370;-6.314;2023-04-21T10:06:23;28.02;;;6.78;;
29934;SDS011;19905;53.370;-6.314;2023-04-21T10:08:52;24.60;;;6.50;;
29934;SDS011;19905;53.370;-6.314;2023-04-21T10:11:24;27.15;;;6.78;;
29934;SDS011;19905;53.370;-6.314;2023-04-21T10:13:52;28.08;;;7.00;;
29934;SDS011;19905;53.370;-6.314;2023-04-21T10:16:23;24.90;;;6.95;;
29934;SDS011;19905;53.370;-6.314;2023-04-21T10:18:52;30.33;;;6.78;;
29934;SDS011;19905;53.370;-6.314;2023-04-21T10:21:20;29.05;;;6.85;;
29934;SDS011;19905;53.370;-6.314;2023-04-21T10:23:50;30.75;;;7.72;;
29934;SDS011;19905;53.370;-6.314;2023-04-21T10:26:20;28.10;;;7.45;;
29934;SDS011;19905;53.370;-6.314;2023-04-21T10:28:51;24.83;;;7.35;;
29934;SDS011;19905;53.370;-6.314;2023-04-21T10:31:25;24.42;;;7.15;;
29934;SDS011;19905;53.370;-6.314;2023-04-21T10:34:13;27.15;;;6.72;;
29934;SDS011;19905;53.370;-6.314;2023-04-21T10:39:42;27.08;;;7.10;;
29934;SDS011;19905;53.370;-6.314;2023-04-21T10:42:17;35.08;;;7.70;;
29934;SDS011;19905;53.370;-6.314;2023-04-21T10:44:59;24.90;;;7.03;;
29934;SDS011;19905;53.370;-6.314;2023-04-21T10:47:37;31.20;;;7.35;;
29934;SDS011;19905;53.370;-6.314;2023-04-21T10:50:12;28.17;;;7.32;;
29934;SDS011;19905;53.370;-6.314;2023-04-21T10:52:50;34.72;;;7.57;;
29934;SDS011;19905;53.370;-6.314;2023-04-21T10:55:21;30.73;;;7.28;;
29934;SDS011;19905;53.370;-6.314;2023-04-21T10:57:52;25.88;;;7.13;;
29934;SDS011;19905;53.370;-6.314;2023-04-21T11:00:21;24.13;;;6.32;;
29934;SDS011;19905;53.370;-6.314;2023-04-21T11:02:56;21.63;;;6.00;;
29934;SDS011;19905;53.370;-6.314;2023-04-21T11:05:28;27.30;;;6.60;;
29934;SDS011;19905;53.370;-6.314;2023-04-21T11:08:11;32.97;;;7.10;;
29934;SDS011;19905;53.370;-6.314;2023-04-21T11:10:52;25.65;;;6.65;;
29934;SDS011;19905;53.370;-6.314;2023-04-21T11:13:22;27.60;;;6.60;;
29934;SDS011;19905;53.370;-6.314;2023-04-21T11:18:40;36.72;;;6.82;;
29934;SDS011;19905;53.370;-6.314;2023-04-21T11:21:11;34.15;;;7.35;;
29934;SDS011;19905;53.370;-6.314;2023-04-21T11:23:47;35.90;;;7.35;;
29934;SDS011;19905;53.370;-6.314;2023-04-21T11:26:17;31.88;;;7.63;;
29934;SDS011;19905;53.370;-6.314;2023-04-21T11:28:58;22.70;;;6.38;;
29934;SDS011;19905;53.370;-6.314;2023-04-21T11:31:28;25.50;;;6.68;;
29934;SDS011;19905;53.370;-6.314;2023-04-21T11:33:58;30.15;;;6.90;;
29934;SDS011;19905;53.370;-6.314;2023-04-21T11:36:28;27.08;;;6.68;;
29934;SDS011;19905;53.370;-6.314;2023-04-21T11:38:56;21.08;;;6.93;;
29934;SDS011;19905;53.370;-6.314;2023-04-21T11:41:25;28.98;;;7.13;;
29934;SDS011;19905;53.370;-6.314;2023-04-21T11:43:54;24.63;;;6.97;;
29934;SDS011;19905;53.370;-6.314;2023-04-21T11:46:23;26.33;;;7.18;;
29934;SDS011;19905;53.370;-6.314;2023-04-21T11:49:01;30.70;;;7.43;;
29934;SDS011;19905;53.370;-6.314;2023-04-21T11:51:31;31.25;;;6.95;;
29934;SDS011;19905;53.370;-6.314;2023-04-21T11:54:01;26.15;;;7.07;;
29934;SDS011;19905;53.370;-6.314;2023-04-21T11:56:33;28.08;;;6.53;;
29934;SDS011;19905;53.370;-6.314;2023-04-21T11:59:06;26.40;;;7.40;;
29934;SDS011;19905;53.370;-6.314;2023-04-21T12:01:41;25.75;;;7.20;;
29934;SDS011;19905;53.370;-6.314;2023-04-21T12:04:13;28.55;;;7.20;;
29934;SDS011;19905;53.370;-6.314;2023-04-21T12:06:44;32.88;;;7.13;;
29934;SDS011;19905;53.370;-6.314;2023-04-21T12:09:16;27.77;;;7.25;;
29934;SDS011;19905;53.370;-6.314;2023-04-21T12:11:46;25.58;;;6.57;;
29934;SDS011;19905;53.370;-6.314;2023-04-21T12:14:16;25.45;;;6.47;;
29934;SDS011;19905;53.370;-6.314;2023-04-21T12:16:47;29.73;;;7.47;;
29934;SDS011;19905;53.370;-6.314;2023-04-21T12:19:22;21.30;;;6.57;;
29934;SDS011;19905;53.370;-6.314;2023-04-21T12:21:52;29.92;;;6.82;;
29934;SDS011;19905;53.370;-6.314;2023-04-21T12:24:22;24.45;;;6.35;;
29934;SDS011;19905;53.370;-6.314;2023-04-21T12:26:51;30.45;;;7.40;;
29934;SDS011;19905;53.370;-6.314;2023-04-21T12:29:20;21.42;;;6.40;;
29934;SDS011;19905;53.370;-6.314;2023-04-21T12:31:49;24.15;;;7.07;;
29934;SDS011;19905;53.370;-6.314;2023-04-21T12:34:17;28.83;;;7.10;;
29934;SDS011;19905;53.370;-6.314;2023-04-21T12:36:47;24.80;;;6.43;;
29934;SDS011;19905;53.370;-6.314;2023-04-21T12:39:16;26.92;;;6.88;;
29934;SDS011;19905;53.370;-6.314;2023-04-21T12:41:46;31.58;;;7.63;;
29934;SDS011;19905;53.370;-6.314;2023-04-21T12:44:14;27.13;;;7.10;;
29934;SDS011;19905;53.370;-6.314;2023-04-21T12:46:43;28.08;;;6.40;;
29934;SDS011;19905;53.370;-6.314;2023-04-21T12:49:11;27.33;;;7.22;;
29934;SDS011;19905;53.370;-6.314;2023-04-21T12:51:41;24.27;;;6.50;;
29934;SDS011;19905;53.370;-6.314;2023-04-21T12:54:12;27.73;;;7.10;;
29934;SDS011;19905;53.370;-6.314;2023-04-21T12:56:41;21.73;;;6.57;;
29934;SDS011;19905;53.370;-6.314;2023-04-21T12:59:10;23.10;;;6.45;;
29934;SDS011;19905;53.370;-6.314;2023-04-21T13:01:39;22.02;;;6.68;;
29934;SDS011;19905;53.370;-6.314;2023-04-21T13:04:09;23.70;;;7.10;;
29934;SDS011;19905;53.370;-6.314;2023-04-21T13:06:38;21.42;;;6.43;;
29934;SDS011;19905;53.370;-6.314;2023-04-21T13:09:06;26.10;;;6.55;;
29934;SDS011;19905;53.370;-6.314;2023-04-21T13:11:36;23.48;;;6.85;;
29934;SDS011;19905;53.370;-6.314;2023-04-21T13:14:05;22.27;;;7.10;;
29934;SDS011;19905;53.370;-6.314;2023-04-21T13:16:34;29.10;;;7.00;;
29934;SDS011;19905;53.370;-6.314;2023-04-21T13:19:03;26.52;;;7.03;;
29934;SDS011;19905;53.370;-6.314;2023-04-21T13:21:32;30.52;;;7.10;;
29934;SDS011;19905;53.370;-6.314;2023-04-21T13:24:01;27.02;;;6.70;;
29934;SDS011;19905;53.370;-6.314;2023-04-21T13:26:29;24.90;;;7.25;;
29934;SDS011;19905;53.370;-6.314;2023-04-21T13:29:02;23.13;;;6.45;;
29934;SDS011;19905;53.370;-6.314;2023-04-21T13:31:31;25.40;;;6.90;;
29934;SDS011;19905;53.370;-6.314;2023-04-21T13:33:59;16.77;;;5.80;;
29934;SDS011;19905;53.370;-6.314;2023-04-21T13:36:28;22.88;;;6.75;;
29934;SDS011;19905;53.370;-6.314;2023-04-21T13:38:58;26.52;;;6.97;;
29934;SDS011;19905;53.370;-6.314;2023-04-21T13:41:27;18.60;;;6.50;;
29934;SDS011;19905;53.370;-6.314;2023-04-21T13:43:55;26.38;;;7.28;;
29934;SDS011;19905;53.370;-6.314;2023-04-21T13:46:26;23.52;;;6.40;;
29934;SDS011;19905;53.370;-6.314;2023-04-21T13:48:55;22.88;;;6.10;;
29934;SDS011;19905;53.370;-6.314;2023-04-21T13:51:24;32.38;;;7.68;;
29934;SDS011;19905;53.370;-6.314;2023-04-21T13:53:53;25.50;;;7.32;;
29934;SDS011;19905;53.370;-6.314;2023-04-21T13:56:22;27.85;;;7.45;;
29934;SDS011;19905;53.370;-6.314;2023-04-21T13:58:51;25.10;;;7.03;;
29934;SDS011;19905;53.370;-6.314;2023-04-21T14:01:22;24.80;;;6.90;;
29934;SDS011;19905;53.370;-6.314;2023-04-21T14:03:52;30.05;;;6.75;;
29934;SDS011;19905;53.370;-6.314;2023-04-21T14:06:21;20.45;;;6.55;;
29934;SDS011;19905;53.370;-6.314;2023-04-21T14:08:49;24.48;;;7.20;;
29934;SDS011;19905;53.370;-6.314;2023-04-21T14:11:18;21.73;;;6.32;;
29934;SDS011;19905;53.370;-6.314;2023-04-21T14:13:47;21.13;;;6.88;;
29934;SDS011;19905;53.370;-6.314;2023-04-21T14:16:34;22.88;;;6.57;;
29934;SDS011;19905;53.370;-6.314;2023-04-21T14:19:04;19.77;;;6.47;;
29934;SDS011;19905;53.370;-6.314;2023-04-21T14:21:32;25.33;;;7.13;;
29934;SDS011;19905;53.370;-6.314;2023-04-21T14:24:01;22.33;;;6.30;;
29934;SDS011;19905;53.370;-6.314;2023-04-21T14:26:30;24.95;;;6.78;;
29934;SDS011;19905;53.370;-6.314;2023-04-21T14:29:00;21.65;;;6.30;;
29934;SDS011;19905;53.370;-6.314;2023-04-21T14:31:29;27.02;;;6.80;;
29934;SDS011;19905;53.370;-6.314;2023-04-21T14:33:59;22.35;;;7.00;;
29934;SDS011;19905;53.370;-6.314;2023-04-21T14:36:29;25.65;;;6.75;;
29934;SDS011;19905;53.370;-6.314;2023-04-21T14:38:58;31.75;;;7.78;;
29934;SDS011;19905;53.370;-6.314;2023-04-21T14:41:27;27.33;;;7.30;;